sensor_id;sensor_type;location;lat;lon;timestamp;temperature;humidity
19829;DHT22;10075;50.924;4.396;2023-04-22T00:01:13;9.30;99.90
19829;DHT22;10075;50.924;4.396;2023-04-22T00:03:41;9.30;99.90
19829;DHT22;10075;50.924;4.396;2023-04-22T00:06:09;9.20;99.90
19829;DHT22;10075;50.924;4.396;2023-04-22T00:08:36;9.30;99.90
19829;DHT22;10075;50.924;4.396;2023-04-22T00:11:03;9.30;99.90
19829;DHT22;10075;50.924;4.396;2023-04-22T00:13:31;9.30;99.90
19829;DHT22;10075;50.924;4.396;2023-04-22T00:15:59;9.30;99.90
19829;DHT22;10075;50.924;4.396;2023-04-22T00:18:26;9.20;99.90
19829;DHT22;10075;50.924;4.396;2023-04-22T00:20:53;9.20;99.90
19829;DHT22;10075;50.924;4.396;2023-04-22T00:23:20;9.20;99.90
19829;DHT22;10075;50.924;4.396;2023-04-22T00:25:47;9.20;99.90
19829;DHT22;10075;50.924;4.396;2023-04-22T00:28:14;9.30;99.90
19829;DHT22;10075;50.924;4.396;2023-04-22T00:30:41;9.30;99.90
19829;DHT22;10075;50.924;4.396;2023-04-22T00:33:10;9.30;99.90
19829;DHT22;10075;50.924;4.396;2023-04-22T00:35:37;9.30;99.90
19829;DHT22;10075;50.924;4.396;2023-04-22T00:38:04;9.40;99.90
19829;DHT22;10075;50.924;4.396;2023-04-22T00:40:31;9.30;99.90
19829;DHT22;10075;50.924;4.396;2023-04-22T00:42:59;9.30;99.90
19829;DHT22;10075;50.924;4.396;2023-04-22T00:45:26;9.30;99.90
19829;DHT22;10075;50.924;4.396;2023-04-22T00:47:53;9.20;99.90
19829;DHT22;10075;50.924;4.396;2023-04-22T00:50:21;9.20;99.90
19829;DHT22;10075;50.924;4.396;2023-04-22T00:52:48;9.30;99.90
19829;DHT22;10075;50.924;4.396;2023-04-22T00:55:15;9.30;99.90
19829;DHT22;10075;50.924;4.396;2023-04-22T00:57:43;9.30;99.90
19829;DHT22;10075;50.924;4.396;2023-04-22T01:00:11;9.30;99.90
19829;DHT22;10075;50.924;4.396;2023-04-22T01:02:39;9.30;99.90
19829;DHT22;10075;50.924;4.396;2023-04-22T01:05:07;9.20;99.90
19829;DHT22;10075;50.924;4.396;2023-04-22T01:07:36;9.10;99.90
19829;DHT22;10075;50.924;4.396;2023-04-22T01:10:04;9.00;99.90
19829;DHT22;10075;50.924;4.396;2023-04-22T01:12:31;9.00;99.90
19829;DHT22;10075;50.924;4.396;2023-04-22T01:14:58;9.00;99.90
19829;DHT22;10075;50.924;4.396;2023-04-22T01:17:25;9.00;99.90
19829;DHT22;10075;50.924;4.396;2023-04-22T01:19:53;9.00;99.90
19829;DHT22;10075;50.924;4.396;2023-04-22T01:22:20;9.00;99.90
19829;DHT22;10075;50.924;4.396;2023-04-22T01:24:50;9.00;99.90
19829;DHT22;10075;50.924;4.396;2023-04-22T01:27:17;9.00;99.90
19829;DHT22;10075;50.924;4.396;2023-04-22T01:29:44;8.90;99.90
19829;DHT22;10075;50.924;4.396;2023-04-22T01:32:11;8.80;99.90
19829;DHT22;10075;50.924;4.396;2023-04-22T01:34:38;8.80;99.90
19829;DHT22;10075;50.924;4.396;2023-04-22T01:37:05;8.80;99.90
19829;DHT22;10075;50.924;4.396;2023-04-22T01:39:32;8.80;99.90
19829;DHT22;10075;50.924;4.396;2023-04-22T01:42:02;8.70;99.90
19829;DHT22;10075;50.924;4.396;2023-04-22T01:44:29;8.80;99.90
19829;DHT22;10075;50.924;4.396;2023-04-22T01:46:56;8.70;99.90
19829;DHT22;10075;50.924;4.396;2023-04-22T01:49:23;8.70;99.90
19829;DHT22;10075;50.924;4.396;2023-04-22T01:51:50;8.70;99.90
19829;DHT22;10075;50.924;4.396;2023-04-22T01:54:17;8.80;99.90
19829;DHT22;10075;50.924;4.396;2023-04-22T01:56:49;8.80;99.90
19829;DHT22;10075;50.924;4.396;2023-04-22T01:59:18;8.90;99.90
19829;DHT22;10075;50.924;4.396;2023-04-22T02:01:45;8.90;99.90
19829;DHT22;10075;50.924;4.396;2023-04-22T02:04:12;8.80;99.90
19829;DHT22;10075;50.924;4.396;2023-04-22T02:06:39;8.80;99.90
19829;DHT22;10075;50.924;4.396;2023-04-22T02:09:06;8.80;99.90
19829;DHT22;10075;50.924;4.396;2023-04-22T02:11:33;8.80;99.90
19829;DHT22;10075;50.924;4.396;2023-04-22T02:14:00;8.80;99.90
19829;DHT22;10075;50.924;4.396;2023-04-22T02:16:28;8.80;99.90
19829;DHT22;10075;50.924;4.396;2023-04-22T02:18:55;8.80;99.90
19829;DHT22;10075;50.924;4.396;2023-04-22T02:21:22;8.70;99.90
19829;DHT22;10075;50.924;4.396;2023-04-22T02:23:49;8.70;99.90
19829;DHT22;10075;50.924;4.396;2023-04-22T02:26:16;8.70;99.90
19829;DHT22;10075;50.924;4.396;2023-04-22T02:28:43;8.70;99.90
19829;DHT22;10075;50.924;4.396;2023-04-22T02:31:10;8.70;99.90
19829;DHT22;10075;50.924;4.396;2023-04-22T02:33:39;8.70;99.90
19829;DHT22;10075;50.924;4.396;2023-04-22T02:36:06;8.70;99.90
19829;DHT22;10075;50.924;4.396;2023-04-22T02:38:33;8.70;99.90
19829;DHT22;10075;50.924;4.396;2023-04-22T02:41:00;8.70;99.90
19829;DHT22;10075;50.924;4.396;2023-04-22T02:43:27;8.70;99.90
19829;DHT22;10075;50.924;4.396;2023-04-22T02:45:54;8.70;99.90
19829;DHT22;10075;50.924;4.396;2023-04-22T02:48:21;8.70;99.90
19829;DHT22;10075;50.924;4.396;2023-04-22T02:50:50;8.80;99.90
19829;DHT22;10075;50.924;4.396;2023-04-22T02:53:17;8.80;99.90
19829;DHT22;10075;50.924;4.396;2023-04-22T02:55:44;8.90;99.90
19829;DHT22;10075;50.924;4.396;2023-04-22T02:58:11;8.90;99.90
19829;DHT22;10075;50.924;4.396;2023-04-22T03:00:38;8.90;99.90
19829;DHT22;10075;50.924;4.396;2023-04-22T03:03:05;8.90;99.90
19829;DHT22;10075;50.924;4.396;2023-04-22T03:05:32;9.00;99.90
19829;DHT22;10075;50.924;4.396;2023-04-22T03:08:00;9.00;99.90
19829;DHT22;10075;50.924;4.396;2023-04-22T03:10:27;9.00;99.90
19829;DHT22;10075;50.924;4.396;2023-04-22T03:12:54;9.00;99.90
19829;DHT22;10075;50.924;4.396;2023-04-22T03:15:21;9.00;99.90
19829;DHT22;10075;50.924;4.396;2023-04-22T03:17:48;9.00;99.90
19829;DHT22;10075;50.924;4.396;2023-04-22T03:20:15;9.00;99.90
19829;DHT22;10075;50.924;4.396;2023-04-22T03:22:43;9.00;99.90
19829;DHT22;10075;50.924;4.396;2023-04-22T03:25:11;9.00;99.90
19829;DHT22;10075;50.924;4.396;2023-04-22T03:27:38;9.00;99.90
19829;DHT22;10075;50.924;4.396;2023-04-22T03:30:06;9.00;99.90
19829;DHT22;10075;50.924;4.396;2023-04-22T03:32:33;9.00;99.90
19829;DHT22;10075;50.924;4.396;2023-04-22T03:35:00;9.10;99.90
19829;DHT22;10075;50.924;4.396;2023-04-22T03:37:27;9.10;99.90
19829;DHT22;10075;50.924;4.396;2023-04-22T03:39:54;9.00;99.90
19829;DHT22;10075;50.924;4.396;2023-04-22T03:42:23;9.00;99.90
19829;DHT22;10075;50.924;4.396;2023-04-22T03:44:50;9.00;99.90
19829;DHT22;10075;50.924;4.396;2023-04-22T03:47:17;9.00;99.90
19829;DHT22;10075;50.924;4.396;2023-04-22T03:49:44;9.00;99.90
19829;DHT22;10075;50.924;4.396;2023-04-22T03:52:11;9.00;99.90
19829;DHT22;10075;50.924;4.396;2023-04-22T03:54:38;9.00;99.90
19829;DHT22;10075;50.924;4.396;2023-04-22T03:57:05;9.00;99.90
19829;DHT22;10075;50.924;4.396;2023-04-22T03:59:34;9.00;99.90
19829;DHT22;10075;50.924;4.396;2023-04-22T04:02:01;9.00;99.90
19829;DHT22;10075;50.924;4.396;2023-04-22T04:04:28;9.00;99.90
19829;DHT22;10075;50.924;4.396;2023-04-22T04:06:55;9.00;99.90
19829;DHT22;10075;50.924;4.396;2023-04-22T04:09:23;8.90;99.90
19829;DHT22;10075;50.924;4.396;2023-04-22T04:11:50;8.90;99.90
19829;DHT22;10075;50.924;4.396;2023-04-22T04:14:17;8.90;99.90
19829;DHT22;10075;50.924;4.396;2023-04-22T04:16:45;8.80;99.90
19829;DHT22;10075;50.924;4.396;2023-04-22T04:19:12;8.90;99.90
19829;DHT22;10075;50.924;4.396;2023-04-22T04:21:39;8.90;99.90
19829;DHT22;10075;50.924;4.396;2023-04-22T04:24:06;8.90;99.90
19829;DHT22;10075;50.924;4.396;2023-04-22T04:26:33;9.00;99.90
19829;DHT22;10075;50.924;4.396;2023-04-22T04:29:01;9.00;99.90
19829;DHT22;10075;50.924;4.396;2023-04-22T04:31:28;9.00;99.90
19829;DHT22;10075;50.924;4.396;2023-04-22T04:33:56;9.10;99.90
19829;DHT22;10075;50.924;4.396;2023-04-22T04:36:23;9.10;99.90
19829;DHT22;10075;50.924;4.396;2023-04-22T04:38:53;9.10;99.90
19829;DHT22;10075;50.924;4.396;2023-04-22T04:41:21;9.10;99.90
19829;DHT22;10075;50.924;4.396;2023-04-22T04:43:48;9.20;99.90
19829;DHT22;10075;50.924;4.396;2023-04-22T04:46:16;9.30;99.90
19829;DHT22;10075;50.924;4.396;2023-04-22T04:48:45;9.20;99.90
19829;DHT22;10075;50.924;4.396;2023-04-22T04:51:14;9.20;99.90
19829;DHT22;10075;50.924;4.396;2023-04-22T04:53:41;9.20;99.90
19829;DHT22;10075;50.924;4.396;2023-04-22T04:56:08;9.20;99.90
19829;DHT22;10075;50.924;4.396;2023-04-22T04:58:35;9.20;99.90
19829;DHT22;10075;50.924;4.396;2023-04-22T05:01:02;9.20;99.90
19829;DHT22;10075;50.924;4.396;2023-04-22T05:03:30;9.20;99.90
19829;DHT22;10075;50.924;4.396;2023-04-22T05:05:58;9.20;99.90
19829;DHT22;10075;50.924;4.396;2023-04-22T05:08:26;9.30;99.90
19829;DHT22;10075;50.924;4.396;2023-04-22T05:10:53;9.30;99.90
19829;DHT22;10075;50.924;4.396;2023-04-22T05:13:20;9.40;99.90
19829;DHT22;10075;50.924;4.396;2023-04-22T05:15:48;9.40;99.90
19829;DHT22;10075;50.924;4.396;2023-04-22T05:18:15;9.50;99.90
19829;DHT22;10075;50.924;4.396;2023-04-22T05:20:42;9.60;99.90
19829;DHT22;10075;50.924;4.396;2023-04-22T05:23:09;9.60;99.90
19829;DHT22;10075;50.924;4.396;2023-04-22T05:25:37;9.70;99.90
19829;DHT22;10075;50.924;4.396;2023-04-22T05:28:04;9.70;99.90
19829;DHT22;10075;50.924;4.396;2023-04-22T05:30:31;9.80;99.90
19829;DHT22;10075;50.924;4.396;2023-04-22T05:32:58;9.80;99.90
19829;DHT22;10075;50.924;4.396;2023-04-22T05:35:25;9.80;99.90
19829;DHT22;10075;50.924;4.396;2023-04-22T05:37:52;9.80;99.90
19829;DHT22;10075;50.924;4.396;2023-04-22T05:40:19;9.80;99.90
19829;DHT22;10075;50.924;4.396;2023-04-22T05:42:48;9.90;99.90
19829;DHT22;10075;50.924;4.396;2023-04-22T05:45:15;10.00;99.90
19829;DHT22;10075;50.924;4.396;2023-04-22T05:47:42;10.10;99.90
19829;DHT22;10075;50.924;4.396;2023-04-22T05:50:09;10.20;99.90
19829;DHT22;10075;50.924;4.396;2023-04-22T05:52:36;10.30;99.90
19829;DHT22;10075;50.924;4.396;2023-04-22T05:55:04;10.30;99.90
19829;DHT22;10075;50.924;4.396;2023-04-22T05:57:31;10.40;99.90
19829;DHT22;10075;50.924;4.396;2023-04-22T06:00:03;10.60;99.90
19829;DHT22;10075;50.924;4.396;2023-04-22T06:02:30;10.70;99.90
19829;DHT22;10075;50.924;4.396;2023-04-22T06:04:57;10.80;99.90
19829;DHT22;10075;50.924;4.396;2023-04-22T06:07:24;10.90;99.90
19829;DHT22;10075;50.924;4.396;2023-04-22T06:09:51;11.20;99.90
19829;DHT22;10075;50.924;4.396;2023-04-22T06:12:18;11.40;99.90
19829;DHT22;10075;50.924;4.396;2023-04-22T06:14:45;11.60;99.90
19829;DHT22;10075;50.924;4.396;2023-04-22T06:17:14;11.70;99.90
19829;DHT22;10075;50.924;4.396;2023-04-22T06:19:41;11.90;99.90
19829;DHT22;10075;50.924;4.396;2023-04-22T06:22:08;11.90;99.90
19829;DHT22;10075;50.924;4.396;2023-04-22T06:24:35;12.10;99.90
19829;DHT22;10075;50.924;4.396;2023-04-22T06:27:02;12.20;99.90
19829;DHT22;10075;50.924;4.396;2023-04-22T06:29:29;12.30;99.90
19829;DHT22;10075;50.924;4.396;2023-04-22T06:31:56;12.40;99.90
19829;DHT22;10075;50.924;4.396;2023-04-22T06:34:24;12.40;99.90
19829;DHT22;10075;50.924;4.396;2023-04-22T06:36:51;12.40;99.90
19829;DHT22;10075;50.924;4.396;2023-04-22T06:39:19;12.40;99.90
19829;DHT22;10075;50.924;4.396;2023-04-22T06:41:46;12.50;99.90
19829;DHT22;10075;50.924;4.396;2023-04-22T06:44:14;12.60;99.90
19829;DHT22;10075;50.924;4.396;2023-04-22T06:46:41;12.70;99.90
19829;DHT22;10075;50.924;4.396;2023-04-22T06:49:08;12.70;99.90
19829;DHT22;10075;50.924;4.396;2023-04-22T06:51:36;12.70;99.90
19829;DHT22;10075;50.924;4.396;2023-04-22T06:54:04;12.70;99.90
19829;DHT22;10075;50.924;4.396;2023-04-22T06:56:31;12.80;99.90
19829;DHT22;10075;50.924;4.396;2023-04-22T06:58:58;12.90;99.90
19829;DHT22;10075;50.924;4.396;2023-04-22T07:01:25;13.00;99.90
19829;DHT22;10075;50.924;4.396;2023-04-22T07:03:52;13.10;99.90
19829;DHT22;10075;50.924;4.396;2023-04-22T07:06:19;13.10;99.90
19829;DHT22;10075;50.924;4.396;2023-04-22T07:08:47;13.10;99.90
19829;DHT22;10075;50.924;4.396;2023-04-22T07:11:14;13.10;99.90
19829;DHT22;10075;50.924;4.396;2023-04-22T07:13:41;13.10;99.90
19829;DHT22;10075;50.924;4.396;2023-04-22T07:16:08;13.30;99.90
19829;DHT22;10075;50.924;4.396;2023-04-22T07:18:35;13.50;99.90
19829;DHT22;10075;50.924;4.396;2023-04-22T07:21:04;13.60;99.90
19829;DHT22;10075;50.924;4.396;2023-04-22T07:23:31;13.80;99.90
19829;DHT22;10075;50.924;4.396;2023-04-22T07:26:00;13.90;99.90
19829;DHT22;10075;50.924;4.396;2023-04-22T07:28:27;14.00;99.90
19829;DHT22;10075;50.924;4.396;2023-04-22T07:30:54;14.20;99.90
19829;DHT22;10075;50.924;4.396;2023-04-22T07:33:21;14.30;99.90
19829;DHT22;10075;50.924;4.396;2023-04-22T07:35:48;14.40;99.90
19829;DHT22;10075;50.924;4.396;2023-04-22T07:38:15;14.40;99.90
19829;DHT22;10075;50.924;4.396;2023-04-22T07:40:42;14.50;99.90
19829;DHT22;10075;50.924;4.396;2023-04-22T07:43:11;14.60;99.90
19829;DHT22;10075;50.924;4.396;2023-04-22T07:45:38;14.60;99.90
19829;DHT22;10075;50.924;4.396;2023-04-22T07:48:05;14.60;99.90
19829;DHT22;10075;50.924;4.396;2023-04-22T07:50:32;14.60;99.90
19829;DHT22;10075;50.924;4.396;2023-04-22T07:52:59;14.60;99.90
19829;DHT22;10075;50.924;4.396;2023-04-22T07:55:26;14.70;99.90
19829;DHT22;10075;50.924;4.396;2023-04-22T07:57:53;14.80;99.90
19829;DHT22;10075;50.924;4.396;2023-04-22T08:00:22;14.80;99.90
19829;DHT22;10075;50.924;4.396;2023-04-22T08:02:49;14.90;99.90
19829;DHT22;10075;50.924;4.396;2023-04-22T08:05:16;15.10;99.90
19829;DHT22;10075;50.924;4.396;2023-04-22T08:07:43;15.20;99.90
19829;DHT22;10075;50.924;4.396;2023-04-22T08:10:10;15.40;99.90
19829;DHT22;10075;50.924;4.396;2023-04-22T08:12:37;15.70;99.90
19829;DHT22;10075;50.924;4.396;2023-04-22T08:15:05;15.90;99.90
19829;DHT22;10075;50.924;4.396;2023-04-22T08:17:34;15.90;99.90
19829;DHT22;10075;50.924;4.396;2023-04-22T08:20:02;15.90;99.90
19829;DHT22;10075;50.924;4.396;2023-04-22T08:22:30;15.90;99.90
19829;DHT22;10075;50.924;4.396;2023-04-22T08:24:58;16.00;99.90
19829;DHT22;10075;50.924;4.396;2023-04-22T08:27:25;16.20;99.90
19829;DHT22;10075;50.924;4.396;2023-04-22T08:29:52;16.40;99.90
19829;DHT22;10075;50.924;4.396;2023-04-22T08:32:19;16.50;99.90
19829;DHT22;10075;50.924;4.396;2023-04-22T08:34:49;16.50;99.90
19829;DHT22;10075;50.924;4.396;2023-04-22T08:37:16;16.80;99.90
19829;DHT22;10075;50.924;4.396;2023-04-22T08:39:43;17.10;99.90
19829;DHT22;10075;50.924;4.396;2023-04-22T08:42:11;17.40;99.90
19829;DHT22;10075;50.924;4.396;2023-04-22T08:44:38;17.50;99.90
19829;DHT22;10075;50.924;4.396;2023-04-22T08:47:05;17.60;99.90
19829;DHT22;10075;50.924;4.396;2023-04-22T08:49:34;17.80;99.90
19829;DHT22;10075;50.924;4.396;2023-04-22T08:52:03;18.00;99.90
19829;DHT22;10075;50.924;4.396;2023-04-22T08:54:30;18.00;99.90
19829;DHT22;10075;50.924;4.396;2023-04-22T08:56:59;17.90;99.90
19829;DHT22;10075;50.924;4.396;2023-04-22T08:59:27;18.00;99.90
19829;DHT22;10075;50.924;4.396;2023-04-22T09:01:54;18.10;99.90
19829;DHT22;10075;50.924;4.396;2023-04-22T09:04:23;18.20;99.90
19829;DHT22;10075;50.924;4.396;2023-04-22T09:06:50;18.50;99.90
19829;DHT22;10075;50.924;4.396;2023-04-22T09:09:18;18.70;99.90
19829;DHT22;10075;50.924;4.396;2023-04-22T09:11:45;18.90;99.90
19829;DHT22;10075;50.924;4.396;2023-04-22T09:14:12;19.00;99.90
19829;DHT22;10075;50.924;4.396;2023-04-22T09:16:40;19.20;99.90
19829;DHT22;10075;50.924;4.396;2023-04-22T09:19:10;19.20;99.90
19829;DHT22;10075;50.924;4.396;2023-04-22T09:21:39;19.20;99.90
19829;DHT22;10075;50.924;4.396;2023-04-22T09:24:07;19.00;99.90
19829;DHT22;10075;50.924;4.396;2023-04-22T09:26:38;18.80;99.90
19829;DHT22;10075;50.924;4.396;2023-04-22T09:29:06;18.70;99.90
19829;DHT22;10075;50.924;4.396;2023-04-22T09:31:35;18.50;99.90
19829;DHT22;10075;50.924;4.396;2023-04-22T09:34:06;18.40;99.90
19829;DHT22;10075;50.924;4.396;2023-04-22T09:36:33;18.20;99.90
19829;DHT22;10075;50.924;4.396;2023-04-22T09:39:03;18.00;99.90
19829;DHT22;10075;50.924;4.396;2023-04-22T09:41:32;17.80;99.90
19829;DHT22;10075;50.924;4.396;2023-04-22T09:44:02;17.70;99.90
19829;DHT22;10075;50.924;4.396;2023-04-22T09:46:30;17.70;99.90
19829;DHT22;10075;50.924;4.396;2023-04-22T09:48:58;17.50;99.90
19829;DHT22;10075;50.924;4.396;2023-04-22T09:51:27;17.30;99.90
19829;DHT22;10075;50.924;4.396;2023-04-22T09:53:58;17.10;99.90
19829;DHT22;10075;50.924;4.396;2023-04-22T09:56:48;16.80;99.90
19829;DHT22;10075;50.924;4.396;2023-04-22T09:59:21;16.60;99.90
19829;DHT22;10075;50.924;4.396;2023-04-22T10:01:50;16.40;99.90
19829;DHT22;10075;50.924;4.396;2023-04-22T10:04:17;16.30;99.90
19829;DHT22;10075;50.924;4.396;2023-04-22T10:06:48;16.20;99.90
19829;DHT22;10075;50.924;4.396;2023-04-22T10:09:17;16.10;99.90
19829;DHT22;10075;50.924;4.396;2023-04-22T10:11:48;16.00;99.90
19829;DHT22;10075;50.924;4.396;2023-04-22T10:14:15;15.80;99.90
19829;DHT22;10075;50.924;4.396;2023-04-22T10:16:45;15.70;99.90
19829;DHT22;10075;50.924;4.396;2023-04-22T10:19:15;15.60;99.90
19829;DHT22;10075;50.924;4.396;2023-04-22T10:21:44;15.50;99.90
19829;DHT22;10075;50.924;4.396;2023-04-22T10:24:14;15.50;99.90
19829;DHT22;10075;50.924;4.396;2023-04-22T10:26:47;15.50;99.90
19829;DHT22;10075;50.924;4.396;2023-04-22T10:29:15;15.40;99.90
19829;DHT22;10075;50.924;4.396;2023-04-22T10:31:47;15.50;99.90
19829;DHT22;10075;50.924;4.396;2023-04-22T10:34:17;15.50;99.90
19829;DHT22;10075;50.924;4.396;2023-04-22T10:36:55;15.60;99.90
19829;DHT22;10075;50.924;4.396;2023-04-22T10:39:23;15.50;99.90
19829;DHT22;10075;50.924;4.396;2023-04-22T10:41:53;15.50;99.90
19829;DHT22;10075;50.924;4.396;2023-04-22T10:44:20;15.30;99.90
19829;DHT22;10075;50.924;4.396;2023-04-22T10:46:59;15.50;99.90
19829;DHT22;10075;50.924;4.396;2023-04-22T10:49:29;15.70;99.90
19829;DHT22;10075;50.924;4.396;2023-04-22T10:51:58;15.60;99.90
19829;DHT22;10075;50.924;4.396;2023-04-22T10:54:57;15.60;99.90
19829;DHT22;10075;50.924;4.396;2023-04-22T10:57:34;15.80;99.90
19829;DHT22;10075;50.924;4.396;2023-04-22T11:00:22;15.60;99.90
19829;DHT22;10075;50.924;4.396;2023-04-22T11:02:53;15.50;99.90
19829;DHT22;10075;50.924;4.396;2023-04-22T11:05:22;15.50;99.90
19829;DHT22;10075;50.924;4.396;2023-04-22T11:07:51;15.40;99.90
19829;DHT22;10075;50.924;4.396;2023-04-22T11:10:34;15.30;99.90
19829;DHT22;10075;50.924;4.396;2023-04-22T11:13:02;15.50;99.90
19829;DHT22;10075;50.924;4.396;2023-04-22T11:15:33;15.30;99.90
19829;DHT22;10075;50.924;4.396;2023-04-22T11:18:06;15.30;99.90
19829;DHT22;10075;50.924;4.396;2023-04-22T11:20:33;15.30;99.90
19829;DHT22;10075;50.924;4.396;2023-04-22T11:23:02;15.30;99.90
19829;DHT22;10075;50.924;4.396;2023-04-22T11:25:29;15.00;99.90
19829;DHT22;10075;50.924;4.396;2023-04-22T11:27:56;14.80;99.90
19829;DHT22;10075;50.924;4.396;2023-04-22T11:30:25;14.70;99.90
19829;DHT22;10075;50.924;4.396;2023-04-22T11:32:54;14.90;99.90
19829;DHT22;10075;50.924;4.396;2023-04-22T11:35:24;15.00;99.90
19829;DHT22;10075;50.924;4.396;2023-04-22T11:37:52;14.50;99.90
19829;DHT22;10075;50.924;4.396;2023-04-22T11:40:22;14.50;99.90
19829;DHT22;10075;50.924;4.396;2023-04-22T11:42:50;14.60;99.90
19829;DHT22;10075;50.924;4.396;2023-04-22T11:45:17;14.60;99.90
19829;DHT22;10075;50.924;4.396;2023-04-22T11:47:44;14.40;99.90
19829;DHT22;10075;50.924;4.396;2023-04-22T11:50:12;14.40;99.90
19829;DHT22;10075;50.924;4.396;2023-04-22T11:52:46;14.50;99.90
19829;DHT22;10075;50.924;4.396;2023-04-22T11:55:14;14.60;99.90
19829;DHT22;10075;50.924;4.396;2023-04-22T11:57:43;14.50;99.90
19829;DHT22;10075;50.924;4.396;2023-04-22T12:00:13;14.40;99.90
19829;DHT22;10075;50.924;4.396;2023-04-22T12:02:42;14.40;99.90
19829;DHT22;10075;50.924;4.396;2023-04-22T12:05:12;14.40;99.90
19829;DHT22;10075;50.924;4.396;2023-04-22T12:07:42;14.60;99.90
19829;DHT22;10075;50.924;4.396;2023-04-22T12:10:10;14.70;99.90
19829;DHT22;10075;50.924;4.396;2023-04-22T12:12:40;14.40;99.90
19829;DHT22;10075;50.924;4.396;2023-04-22T12:15:08;14.60;99.90
19829;DHT22;10075;50.924;4.396;2023-04-22T12:17:36;14.70;99.90
19829;DHT22;10075;50.924;4.396;2023-04-22T12:20:03;14.70;99.90
19829;DHT22;10075;50.924;4.396;2023-04-22T12:22:32;14.60;99.90
19829;DHT22;10075;50.924;4.396;2023-04-22T12:24:59;14.40;99.90
19829;DHT22;10075;50.924;4.396;2023-04-22T12:27:29;14.20;99.90
19829;DHT22;10075;50.924;4.396;2023-04-22T12:29:56;14.20;99.90
19829;DHT22;10075;50.924;4.396;2023-04-22T12:32:25;14.00;99.90
19829;DHT22;10075;50.924;4.396;2023-04-22T12:34:52;14.30;99.90
19829;DHT22;10075;50.924;4.396;2023-04-22T12:37:19;14.00;99.90
19829;DHT22;10075;50.924;4.396;2023-04-22T12:39:47;13.90;99.90
19829;DHT22;10075;50.924;4.396;2023-04-22T12:42:14;14.00;99.90
19829;DHT22;10075;50.924;4.396;2023-04-22T12:44:43;14.00;99.90
19829;DHT22;10075;50.924;4.396;2023-04-22T12:47:11;13.80;99.90
19829;DHT22;10075;50.924;4.396;2023-04-22T12:49:38;13.90;99.90
19829;DHT22;10075;50.924;4.396;2023-04-22T12:52:05;14.20;99.90
19829;DHT22;10075;50.924;4.396;2023-04-22T12:54:32;14.30;99.90
19829;DHT22;10075;50.924;4.396;2023-04-22T12:57:04;14.40;99.90
19829;DHT22;10075;50.924;4.396;2023-04-22T12:59:31;14.30;99.90
19829;DHT22;10075;50.924;4.396;2023-04-22T13:02:00;14.00;99.90
19829;DHT22;10075;50.924;4.396;2023-04-22T13:04:27;13.50;99.90
19829;DHT22;10075;50.924;4.396;2023-04-22T13:06:54;13.30;99.90
19829;DHT22;10075;50.924;4.396;2023-04-22T13:09:25;13.30;99.90
19829;DHT22;10075;50.924;4.396;2023-04-22T13:11:52;13.50;99.90
19829;DHT22;10075;50.924;4.396;2023-04-22T13:14:19;13.70;99.90
19829;DHT22;10075;50.924;4.396;2023-04-22T13:16:46;13.80;99.90
19829;DHT22;10075;50.924;4.396;2023-04-22T13:19:14;13.30;99.90
19829;DHT22;10075;50.924;4.396;2023-04-22T13:21:41;13.00;99.90
19829;DHT22;10075;50.924;4.396;2023-04-22T13:24:09;13.00;99.90
19829;DHT22;10075;50.924;4.396;2023-04-22T13:26:37;12.70;99.90
19829;DHT22;10075;50.924;4.396;2023-04-22T13:29:04;12.40;99.90
19829;DHT22;10075;50.924;4.396;2023-04-22T13:31:36;12.40;99.90
19829;DHT22;10075;50.924;4.396;2023-04-22T13:34:04;12.50;99.90
19829;DHT22;10075;50.924;4.396;2023-04-22T13:36:32;12.80;99.90
19829;DHT22;10075;50.924;4.396;2023-04-22T13:38:59;13.00;99.90
19829;DHT22;10075;50.924;4.396;2023-04-22T13:41:26;13.20;99.90
19829;DHT22;10075;50.924;4.396;2023-04-22T13:43:56;13.20;99.90
19829;DHT22;10075;50.924;4.396;2023-04-22T13:46:24;13.30;99.90
19829;DHT22;10075;50.924;4.396;2023-04-22T13:48:52;13.30;99.90
19829;DHT22;10075;50.924;4.396;2023-04-22T13:51:19;13.40;99.90
19829;DHT22;10075;50.924;4.396;2023-04-22T13:53:47;13.60;99.90
19829;DHT22;10075;50.924;4.396;2023-04-22T13:56:15;13.60;99.90
19829;DHT22;10075;50.924;4.396;2023-04-22T13:58:42;13.60;99.90
19829;DHT22;10075;50.924;4.396;2023-04-22T14:01:09;13.50;99.90
19829;DHT22;10075;50.924;4.396;2023-04-22T14:03:36;13.70;99.90
19829;DHT22;10075;50.924;4.396;2023-04-22T14:06:03;13.70;99.90
19829;DHT22;10075;50.924;4.396;2023-04-22T14:08:30;13.60;99.90
19829;DHT22;10075;50.924;4.396;2023-04-22T14:10:59;13.10;99.90
19829;DHT22;10075;50.924;4.396;2023-04-22T14:13:28;12.90;99.90
19829;DHT22;10075;50.924;4.396;2023-04-22T14:15:55;13.00;99.90
19829;DHT22;10075;50.924;4.396;2023-04-22T14:18:22;13.20;99.90
19829;DHT22;10075;50.924;4.396;2023-04-22T14:20:51;13.30;99.90
19829;DHT22;10075;50.924;4.396;2023-04-22T14:23:18;13.10;99.90
19829;DHT22;10075;50.924;4.396;2023-04-22T14:25:46;12.90;99.90
19829;DHT22;10075;50.924;4.396;2023-04-22T14:28:15;12.40;99.90
19829;DHT22;10075;50.924;4.396;2023-04-22T14:30:42;12.10;99.90
19829;DHT22;10075;50.924;4.396;2023-04-22T14:33:09;11.90;99.90
19829;DHT22;10075;50.924;4.396;2023-04-22T14:35:37;11.60;99.90
19829;DHT22;10075;50.924;4.396;2023-04-22T14:38:06;11.70;99.90
19829;DHT22;10075;50.924;4.396;2023-04-22T14:40:33;11.70;99.90
19829;DHT22;10075;50.924;4.396;2023-04-22T14:43:02;11.60;99.90
19829;DHT22;10075;50.924;4.396;2023-04-22T14:45:31;11.60;99.90
19829;DHT22;10075;50.924;4.396;2023-04-22T14:47:59;11.60;99.90
19829;DHT22;10075;50.924;4.396;2023-04-22T14:50:26;11.70;99.90
19829;DHT22;10075;50.924;4.396;2023-04-22T14:52:53;11.90;99.90
19829;DHT22;10075;50.924;4.396;2023-04-22T14:55:20;12.00;99.90
19829;DHT22;10075;50.924;4.396;2023-04-22T14:57:48;12.10;99.90
19829;DHT22;10075;50.924;4.396;2023-04-22T15:00:16;12.00;99.90
19829;DHT22;10075;50.924;4.396;2023-04-22T15:02:44;12.10;99.90
19829;DHT22;10075;50.924;4.396;2023-04-22T15:05:11;12.20;99.90
19829;DHT22;10075;50.924;4.396;2023-04-22T15:07:38;12.40;99.90
19829;DHT22;10075;50.924;4.396;2023-04-22T15:10:07;12.40;99.90
19829;DHT22;10075;50.924;4.396;2023-04-22T15:12:34;12.40;99.90
19829;DHT22;10075;50.924;4.396;2023-04-22T15:15:04;12.60;99.90
19829;DHT22;10075;50.924;4.396;2023-04-22T15:17:31;12.60;99.90
19829;DHT22;10075;50.924;4.396;2023-04-22T15:20:00;12.30;99.90
19829;DHT22;10075;50.924;4.396;2023-04-22T15:22:29;12.20;99.90
19829;DHT22;10075;50.924;4.396;2023-04-22T15:24:56;12.20;99.90
19829;DHT22;10075;50.924;4.396;2023-04-22T15:27:23;12.50;99.90
19829;DHT22;10075;50.924;4.396;2023-04-22T15:29:50;13.00;99.90
19829;DHT22;10075;50.924;4.396;2023-04-22T15:32:17;13.20;99.90
19829;DHT22;10075;50.924;4.396;2023-04-22T15:34:44;13.50;99.90
19829;DHT22;10075;50.924;4.396;2023-04-22T15:37:13;13.60;99.90
19829;DHT22;10075;50.924;4.396;2023-04-22T15:39:41;13.80;99.90
19829;DHT22;10075;50.924;4.396;2023-04-22T15:42:08;14.30;99.90